Helsingor, Denmark
Current Conditions -  °F | °C
As of 5:20 AM on Wednesday 26 Nov 2014 (Local Time) from ESTA Reporting Station
Overcast Overcast  
Wind Chill: 41°   Ceiling: 2200
Heat Index: 41°   Visibility: 6mi
Dew Point: 39°   Wind: 3mph
Humidity: 93%   Direction: NA
Pressure: 30.27"   Gusts: NA
Location:  56.04°N, 12.61°E
Report Text: ESTA 260420Z AUTO VRB03KT 9999 OVC022/// 05/04 Q1025
Loading
Personal Weather Stations






























Interactive Weather Map New forecast layout! Learn more

10-Day Weather Forecast

Advertisements
Track Severe Weather on mobile